CDT,Max TemperatureF,Mean TemperatureF,Min TemperatureF,Max Dew PointF,MeanDew PointF,Min DewpointF,Max Humidity, Mean Humidity, Min Humidity, Max Sea Level PressureIn, Mean Sea Level PressureIn, Min Sea Level PressureIn, Max VisibilityMiles, Mean VisibilityMiles, Min VisibilityMiles, Max Wind SpeedMPH, Mean Wind SpeedMPH, Max Gust SpeedMPH,PrecipitationIn, CloudCover, Events, WindDirDegrees
2011-10-1,86,68,49,43,37,31,62,36,17,30.29,30.22,30.16,10,10,10,9,4,,0.00,0,,85
2011-10-2,87,71,55,61,50,41,79,49,26,30.27,30.20,30.15,10,10,10,14,5,18,0.00,1,,172
2011-10-3,84,68,51,54,46,41,75,47,24,30.27,30.20,30.16,10,10,10,17,5,24,0.00,0,,170
2011-10-4,83,70,56,54,45,40,73,42,22,30.26,30.18,30.10,10,10,10,18,9,25,0.00,0,,163
2011-10-5,82,74,67,63,56,45,85,58,40,30.17,30.07,29.96,10,10,10,22,12,31,0.03,4,Rain,162
2011-10-6,88,77,66,62,59,54,82,58,36,30.02,29.95,29.86,10,10,10,26,16,36,0.00,2,,169
2011-10-7,87,78,69,64,61,57,83,59,36,30.03,29.96,29.90,10,10,10,25,19,38,0.00,4,,167
2011-10-8,77,68,60,67,62,58,97,85,64,30.02,29.95,29.87,10,9,2,28,19,39,0.97,7,Rain-Thunderstorm,117
2011-10-9,70,64,58,60,59,55,94,83,66,30.07,30.01,29.89,10,10,2,28,10,41,0.31,7,Rain-Thunderstorm,78
2011-10-10,77,67,57,60,57,51,98,76,40,30.16,30.09,30.00,10,9,0,9,4,,0.00,5,Fog,81
2011-10-11,80,68,57,63,60,56,97,77,51,30.04,29.95,29.85,10,10,7,18,5,23,0.00,4,,179
2011-10-12,87,72,58,64,55,40,97,60,19,30.00,29.90,29.85,10,10,7,16,7,22,0.00,0,,306
2011-10-13,83,68,52,60,49,34,96,62,17,30.15,30.07,30.00,10,8,4,12,4,,0.00,0,,93
2011-10-14,85,67,49,50,46,42,92,55,24,30.07,30.01,29.96,10,10,10,22,5,28,0.00,0,,185
2011-10-15,86,70,54,52,48,44,77,49,23,30.15,30.08,30.02,10,10,10,16,5,21,0.00,0,,177
2011-10-16,84,68,53,62,53,49,94,63,30,30.16,30.09,30.02,10,10,7,17,5,24,0.00,1,,180
2011-10-17,93,73,53,60,51,44,92,55,19,30.04,29.92,29.78,10,10,5,28,6,39,0.00,1,,202
2011-10-18,70,62,53,45,36,27,63,40,22,30.26,30.17,30.00,10,10,10,24,16,34,0.00,0,,5
2011-10-19,73,55,37,32,29,24,81,41,17,30.31,30.22,30.12,10,10,7,12,2,17,0.00,0,,352
2011-10-20,82,60,38,35,32,29,79,43,16,30.12,30.07,29.98,10,10,10,25,5,31,0.00,0,,196
2011-10-21,88,66,44,50,43,36,75,47,21,30.16,30.10,30.04,10,10,10,14,4,18,0.00,0,,167
2011-10-22,84,72,59,61,57,48,87,65,35,30.12,30.06,29.98,10,10,10,15,6,21,0.00,2,,189
2011-10-23,87,69,51,54,48,36,92,63,17,30.19,30.08,30.02,10,10,10,12,3,16,0.00,0,,54
2011-10-24,86,68,50,58,51,46,89,54,24,30.26,30.19,30.13,10,10,10,16,4,24,0.00,0,,169
2011-10-25,85,74,62,57,54,49,82,53,29,30.16,30.09,29.99,10,10,10,21,11,25,0.00,0,,183
2011-10-26,88,75,62,56,52,48,72,46,26,30.00,29.93,29.84,10,10,7,15,9,20,0.00,0,,185
2011-10-27,69,58,46,51,45,40,93,72,53,30.17,30.00,29.85,10,10,4,23,14,34,0.00,6,Rain,27
2011-10-28,58,50,42,39,37,32,85,66,38,30.38,30.30,30.23,10,10,10,18,9,22,0.00,5,,6
2011-10-29,66,48,29,34,30,26,88,55,26,30.35,30.25,30.09,10,10,10,15,5,20,0.00,0,,180
2011-10-30,79,57,35,37,34,30,80,45,18,30.23,30.12,30.08,10,10,10,10,4,,0.00,0,,199
2011-10-31,77,58,39,50,41,32,79,54,29,30.26,30.20,30.11,10,10,10,16,5,20,0.00,0,,171